Aérodrome :
LOGIN :

S'inscrire | Disclaimer

   EN    FR    IT 

 










Légende :    VFR   VFR Marginal   IFR   IFR Intensif   IFR Très Intensif
Visi : 
Plafond : 
>= 8 km
>= 3000ft
5 à 8 km
1000 à 3000 ft
1500m à 5 km
500 à 1000 ft
800 à 1500m
200 à 500 ft
< 800m
< 200 ft
Symboles :   Orages  Brouillard  Fortes neiges  Fortes précipitations  Vent > 20 kt
SIGMETs :   Divers  Orages  Givrage  Turbulence  Onde Orograph.  Cendres Volcan.






- Altitude de l'aérodrome : 935 ft


EBFS - Florennes

DERNIER METAR :
  • 190503Z 09003KT 9999 BKN160 BKN200 18/14 Q1020 BLU BLU

METARs EXPIRÉS :
  • 190455Z AUTO 09003KT 9999 BKN160/// 18/14 Q1020 BLU
  • 190425Z AUTO 08004KT 9999 OVC210/// 17/14 Q1020 BLU
  • 190355Z AUTO 08004KT 9999 BKN210/// 18/14 Q1020 BLU
  • 190325Z AUTO 08003KT 9999 OVC210/// 18/15 Q1020 BLU
  • 190255Z AUTO 10003KT 9999 BKN200/// 19/15 Q1020 BLU
  • 190225Z AUTO VRB01KT 9999 BKN200/// 18/15 Q1020 BLU
  • 190155Z AUTO VRB02KT 9999 BKN210/// 18/15 Q1020 BLU
  • 190125Z AUTO VRB01KT 9999 FEW160/// BKN220/// 19/15 Q1020 BLU
  • 190055Z AUTO VRB01KT 9999 BKN160/// BKN220/// 19/14 Q1020 BLU
  • 190025Z AUTO VRB01KT 9999 SCT160/// BKN220/// 20/14 Q1020 BLU

TAF TAF EBFS
Valide du 18 à 19h jusqu'au 19 à 07h UTC


181554Z 1819/1907 12005KT 9999 FEW045 SCT120



MET'MAP, la Météo Aéronautique d'un coup d'oeil ! - Copyright ORBIFLY Décembre 2007 - Disclaimer

ORBIFLY MET'MAP TEAM :

Programmation & Développement : Alexandra Zaïnal
Sur une idée originale de : Baudouin d'Aumeries
Soutien technique & logistique : Manuel Goepfert
Assistance : Marc-Olivier Méhu




SOURCES & CREDITS :

   NOAA